Wan Hai 273 — 9V7586 — position and weather

sailwx.info

Track history (hours):
 
Tides and Currents Weather Stations Pressure Air Temp Water Temp Dewpoint Dewpoint Depression Visibility Wind Speed Wind Dir Waves Ship Positions

Wan Hai 273

Last reported at 2017-Nov-16 16:28 UTC. Time now 2017-Nov-24 20:53 UTC.
Position N 22°49' E 120°03'.
Warning: this ship's position is 8 days out of date.

Length 172 m; draft 9.1 m.

Type: Cargo ship. MMSI: 566406000.

Date/timePositionNaut miles runAvg speedWind from/ knotsBaromVisibWave heightAir tempDewpointWater temp
2017-Nov-16 16:28N 22°49' E 120°03'818.1
2017-Nov-16 16:01N 22°42' E 120°07'816.2
2017-Nov-16 15:30N 22°38' E 120°14'3 6.6
2017-Nov-16 15:00N 22°36' E 120°17'1 2.5
2017-Nov-16 14:29N 22°35' E 120°18'0 0.0
2017-Nov-16 13:59N 22°35' E 120°18'0 0.0
2017-Nov-16 13:29N 22°35' E 120°18'0 0.0
2017-Nov-16 12:59N 22°35' E 120°18'0 0.0
2017-Nov-16 12:29N 22°35' E 120°18'0 0.0
2017-Nov-16 11:59N 22°35' E 120°18'0 0.0
2017-Nov-16 11:29N 22°35' E 120°18'0 0.0
2017-Nov-16 10:59N 22°35' E 120°18'0 0.0
2017-Nov-16 10:29N 22°35' E 120°18'0 0.0
2017-Nov-16 09:59N 22°35' E 120°18'0 0.0
2017-Nov-16 09:29N 22°35' E 120°18'0 0.0
2017-Nov-16 08:59N 22°35' E 120°18'0 0.0
2017-Nov-16 08:29N 22°35' E 120°18'0 0.0
2017-Nov-16 07:59N 22°35' E 120°18'0 0.0
2017-Nov-16 07:29N 22°35' E 120°18'0 0.0
2017-Nov-16 06:59N 22°35' E 120°18'0 0.0
2017-Nov-16 06:29N 22°35' E 120°18'0 0.0
2017-Nov-16 05:59N 22°35' E 120°18'0 0.0
2017-Nov-16 05:26N 22°35' E 120°18'0 0.0
2017-Nov-16 04:59N 22°35' E 120°18'0 0.0
2017-Nov-16 04:29N 22°35' E 120°18'0 0.0
2017-Nov-16 03:59N 22°35' E 120°18'0 0.4
2017-Nov-16 03:30N 22°34' E 120°18'3 5.1
2017-Nov-16 03:00N 22°37' E 120°17'5 9.0
2017-Nov-16 02:30N 22°37' E 120°12'4 7.9
2017-Nov-16 02:00N 22°36' E 120°08'714.4
2017-Nov-16 01:30N 22°31' E 120°03'918.2
2017-Nov-16 01:00N 22°25' E 119°56'  
2017-Nov-10 10:10N 15°59' E 108°34'318.1
2017-Nov-10 09:59N 16°01' E 108°31'817.9
2017-Nov-10 09:30N 16°07' E 108°24'817.2
2017-Nov-10 09:01N 16°10' E 108°16'5 9.3
2017-Nov-10 08:30N 16°07' E 108°13'0 0.3
2017-Nov-10 08:00N 16°07' E 108°13'0 0.0
2017-Nov-10 07:30N 16°07' E 108°13'0 0.0
2017-Nov-10 07:00N 16°07' E 108°13'0 0.0
2017-Nov-10 06:30N 16°07' E 108°13'0 0.0
2017-Nov-10 06:00N 16°07' E 108°13'0 0.0
2017-Nov-10 05:30N 16°07' E 108°13'0 0.0
2017-Nov-10 05:01N 16°07' E 108°13'0 0.0
2017-Nov-10 04:28N 16°07' E 108°13'0 0.0
2017-Nov-10 04:01N 16°07' E 108°13'0 0.0
2017-Nov-10 03:28N 16°07' E 108°13'0 0.0
2017-Nov-10 03:01N 16°07' E 108°13'0 0.0
2017-Nov-10 02:31N 16°07' E 108°13'0 0.1
2017-Nov-10 02:00N 16°07' E 108°13'2 4.8
2017-Nov-10 01:30N 16°09' E 108°12'1 1.2
2017-Nov-10 00:59N 16°10' E 108°12'0 0.0
2017-Nov-10 00:29N 16°10' E 108°12'0 0.0
2017-Nov-10 00:00N 16°10' E 108°12'0 0.0
2017-Nov-09 23:29N 16°10' E 108°12'0 0.0
2017-Nov-09 22:59N 16°10' E 108°12'0 0.1
2017-Nov-09 22:25N 16°10' E 108°12'0 0.0
2017-Nov-09 21:55N 16°10' E 108°12'0 0.0
2017-Nov-09 21:28N 16°10' E 108°12'0 0.0
2017-Nov-09 20:58N 16°10' E 108°12'0 0.0
2017-Nov-09 20:25N 16°10' E 108°12'0 0.0
2017-Nov-09 19:58N 16°10' E 108°12'0 0.0
2017-Nov-09 19:28N 16°10' E 108°12'0 0.0
2017-Nov-09 18:58N 16°10' E 108°12'0 0.0
2017-Nov-09 18:28N 16°10' E 108°12'0 0.0
2017-Nov-09 17:58N 16°10' E 108°12'0 0.0
2017-Nov-09 17:28N 16°10' E 108°12'0 0.0
2017-Nov-09 16:55N 16°10' E 108°12'0 0.0
2017-Nov-09 16:28N 16°10' E 108°12'0 0.0
2017-Nov-09 15:58N 16°10' E 108°12'0 0.0
2017-Nov-09 15:25N 16°10' E 108°12'0 0.0
2017-Nov-09 14:55N 16°10' E 108°12'0 0.0
2017-Nov-09 14:28N 16°10' E 108°12'0 0.0
2017-Nov-09 13:59N 16°10' E 108°12'0 0.0
2017-Nov-09 13:29N 16°10' E 108°12'0 0.0
2017-Nov-09 12:59N 16°10' E 108°12'0 0.0
2017-Nov-09 12:31N 16°10' E 108°12'0 0.0
2017-Nov-09 11:56N 16°10' E 108°12'0 0.0
2017-Nov-09 11:28N 16°10' E 108°12'0 0.0
2017-Nov-09 10:59N 16°10' E 108°12'0 0.0
2017-Nov-09 10:26N 16°10' E 108°12'0 0.0
2017-Nov-09 10:00N 16°10' E 108°12'0 0.0
2017-Nov-09 09:30N 16°10' E 108°12'0 0.0
2017-Nov-09 09:00N 16°10' E 108°12'0 0.0
2017-Nov-09 08:30N 16°10' E 108°12'0 0.1
2017-Nov-09 08:00N 16°10' E 108°12'0 0.0
2017-Nov-09 07:30N 16°10' E 108°12'0 0.0
2017-Nov-09 07:00N 16°10' E 108°12'0 0.1
2017-Nov-09 06:30N 16°10' E 108°12'0 0.0
2017-Nov-09 06:00N 16°10' E 108°12'0 0.0
2017-Nov-09 05:30N 16°10' E 108°12'4 7.3
2017-Nov-09 04:54N 16°13' E 108°16'715.3
2017-Nov-09 04:27N 16°16' E 108°22'716.0
2017-Nov-09 04:00N 16°20' E 108°28'74018.8
2017-Nov-07 12:41N 22°23' E 119°52'319.3
2017-Nov-07 12:30N 22°24' E 119°55'918.7
2017-Nov-07 12:00N 22°29' E 120°04'918.1
2017-Nov-07 11:30N 22°32' E 120°13'611.2
2017-Nov-07 11:01N 22°33' E 120°19'2 3.4
2017-Nov-07 10:31N 22°35' E 120°18'0 0.0
2017-Nov-07 10:00N 22°35' E 120°18'0 0.0
2017-Nov-07 09:30N 22°35' E 120°18'0 0.0
2017-Nov-07 09:00N 22°35' E 120°18'0 0.0
2017-Nov-07 08:30N 22°35' E 120°18'0 0.0
2017-Nov-07 08:00N 22°35' E 120°18'0 0.0
2017-Nov-07 07:30N 22°35' E 120°18'0 0.0
2017-Nov-07 07:00N 22°35' E 120°18'0 0.0
2017-Nov-07 06:30N 22°35' E 120°18'0 0.0
2017-Nov-07 06:00N 22°35' E 120°18'0 0.0
2017-Nov-07 05:27N 22°35' E 120°18'0 0.0
2017-Nov-07 05:00N 22°35' E 120°18'0 0.0
2017-Nov-07 04:30N 22°35' E 120°18'0 0.0
2017-Nov-07 03:54N 22°35' E 120°18'0 0.0
2017-Nov-07 03:30N 22°35' E 120°18'0 0.0
2017-Nov-07 03:00N 22°35' E 120°18'0 0.0
2017-Nov-07 02:24N 22°35' E 120°18'0 0.0
2017-Nov-07 01:54N 22°35' E 120°18'0 0.0
2017-Nov-07 01:30N 22°35' E 120°18'0 0.0
2017-Nov-07 01:00N 22°35' E 120°18'0 0.0
2017-Nov-07 00:30N 22°35' E 120°18'0 0.0
2017-Nov-07 00:00N 22°35' E 120°18'0 0.0
2017-Nov-06 23:30N 22°35' E 120°18'0 0.0
2017-Nov-06 23:00N 22°35' E 120°18'0 0.0
2017-Nov-06 22:30N 22°35' E 120°18'0 0.0
2017-Nov-06 21:57N 22°35' E 120°18'0 0.0
2017-Nov-06 21:30N 22°35' E 120°18'0 0.1
2017-Nov-06 21:00N 22°35' E 120°18'3 6.6
2017-Nov-06 20:30N 22°37' E 120°16'  
Track history (hours):
 
Tides and Currents Weather Stations Pressure Air Temp Water Temp Dewpoint Dewpoint Depression Visibility Wind Speed Wind Dir Waves Ship Positions

Wan Hai 273

Last reported at 2017-Nov-16 16:28 UTC. Time now 2017-Nov-24 20:53 UTC.
Position N 22°49' E 120°03'.
Warning: this ship's position is 8 days out of date.

Length 172 m; draft 9.1 m.

Type: Cargo ship. MMSI: 566406000.

Date/timePositionNaut miles runAvg speedWind from/ knotsBaromVisibWave heightAir tempDewpointWater temp
2017-Nov-16 16:28N 22°49' E 120°03'818.1
2017-Nov-16 16:01N 22°42' E 120°07'816.2
2017-Nov-16 15:30N 22°38' E 120°14'3 6.6
2017-Nov-16 15:00N 22°36' E 120°17'1 2.5
2017-Nov-16 14:29N 22°35' E 120°18'0 0.0
2017-Nov-16 13:59N 22°35' E 120°18'0 0.0
2017-Nov-16 13:29N 22°35' E 120°18'0 0.0
2017-Nov-16 12:59N 22°35' E 120°18'0 0.0
2017-Nov-16 12:29N 22°35' E 120°18'0 0.0
2017-Nov-16 11:59N 22°35' E 120°18'0 0.0
2017-Nov-16 11:29N 22°35' E 120°18'0 0.0
2017-Nov-16 10:59N 22°35' E 120°18'0 0.0
2017-Nov-16 10:29N 22°35' E 120°18'0 0.0
2017-Nov-16 09:59N 22°35' E 120°18'0 0.0
2017-Nov-16 09:29N 22°35' E 120°18'0 0.0
2017-Nov-16 08:59N 22°35' E 120°18'0 0.0
2017-Nov-16 08:29N 22°35' E 120°18'0 0.0
2017-Nov-16 07:59N 22°35' E 120°18'0 0.0
2017-Nov-16 07:29N 22°35' E 120°18'0 0.0
2017-Nov-16 06:59N 22°35' E 120°18'0 0.0
2017-Nov-16 06:29N 22°35' E 120°18'0 0.0
2017-Nov-16 05:59N 22°35' E 120°18'0 0.0
2017-Nov-16 05:26N 22°35' E 120°18'0 0.0
2017-Nov-16 04:59N 22°35' E 120°18'0 0.0
2017-Nov-16 04:29N 22°35' E 120°18'0 0.0
2017-Nov-16 03:59N 22°35' E 120°18'0 0.4
2017-Nov-16 03:30N 22°34' E 120°18'3 5.1
2017-Nov-16 03:00N 22°37' E 120°17'5 9.0
2017-Nov-16 02:30N 22°37' E 120°12'4 7.9
2017-Nov-16 02:00N 22°36' E 120°08'714.4
2017-Nov-16 01:30N 22°31' E 120°03'918.2
2017-Nov-16 01:00N 22°25' E 119°56'  
2017-Nov-10 10:10N 15°59' E 108°34'318.1
2017-Nov-10 09:59N 16°01' E 108°31'817.9
2017-Nov-10 09:30N 16°07' E 108°24'817.2
2017-Nov-10 09:01N 16°10' E 108°16'5 9.3
2017-Nov-10 08:30N 16°07' E 108°13'0 0.3
2017-Nov-10 08:00N 16°07' E 108°13'0 0.0
2017-Nov-10 07:30N 16°07' E 108°13'0 0.0
2017-Nov-10 07:00N 16°07' E 108°13'0 0.0
2017-Nov-10 06:30N 16°07' E 108°13'0 0.0
2017-Nov-10 06:00N 16°07' E 108°13'0 0.0
2017-Nov-10 05:30N 16°07' E 108°13'0 0.0
2017-Nov-10 05:01N 16°07' E 108°13'0 0.0
2017-Nov-10 04:28N 16°07' E 108°13'0 0.0
2017-Nov-10 04:01N 16°07' E 108°13'0 0.0
2017-Nov-10 03:28N 16°07' E 108°13'0 0.0
2017-Nov-10 03:01N 16°07' E 108°13'0 0.0
2017-Nov-10 02:31N 16°07' E 108°13'0 0.1
2017-Nov-10 02:00N 16°07' E 108°13'2 4.8
2017-Nov-10 01:30N 16°09' E 108°12'1 1.2
2017-Nov-10 00:59N 16°10' E 108°12'0 0.0
2017-Nov-10 00:29N 16°10' E 108°12'0 0.0
2017-Nov-10 00:00N 16°10' E 108°12'0 0.0
2017-Nov-09 23:29N 16°10' E 108°12'0 0.0
2017-Nov-09 22:59N 16°10' E 108°12'0 0.1
2017-Nov-09 22:25N 16°10' E 108°12'0 0.0
2017-Nov-09 21:55N 16°10' E 108°12'0 0.0
2017-Nov-09 21:28N 16°10' E 108°12'0 0.0
2017-Nov-09 20:58N 16°10' E 108°12'0 0.0
2017-Nov-09 20:25N 16°10' E 108°12'0 0.0
2017-Nov-09 19:58N 16°10' E 108°12'0 0.0
2017-Nov-09 19:28N 16°10' E 108°12'0 0.0
2017-Nov-09 18:58N 16°10' E 108°12'0 0.0
2017-Nov-09 18:28N 16°10' E 108°12'0 0.0
2017-Nov-09 17:58N 16°10' E 108°12'0 0.0
2017-Nov-09 17:28N 16°10' E 108°12'0 0.0
2017-Nov-09 16:55N 16°10' E 108°12'0 0.0
2017-Nov-09 16:28N 16°10' E 108°12'0 0.0
2017-Nov-09 15:58N 16°10' E 108°12'0 0.0
2017-Nov-09 15:25N 16°10' E 108°12'0 0.0
2017-Nov-09 14:55N 16°10' E 108°12'0 0.0
2017-Nov-09 14:28N 16°10' E 108°12'0 0.0
2017-Nov-09 13:59N 16°10' E 108°12'0 0.0
2017-Nov-09 13:29N 16°10' E 108°12'0 0.0
2017-Nov-09 12:59N 16°10' E 108°12'0 0.0
2017-Nov-09 12:31N 16°10' E 108°12'0 0.0
2017-Nov-09 11:56N 16°10' E 108°12'0 0.0
2017-Nov-09 11:28N 16°10' E 108°12'0 0.0
2017-Nov-09 10:59N 16°10' E 108°12'0 0.0
2017-Nov-09 10:26N 16°10' E 108°12'0 0.0
2017-Nov-09 10:00N 16°10' E 108°12'0 0.0
2017-Nov-09 09:30N 16°10' E 108°12'0 0.0
2017-Nov-09 09:00N 16°10' E 108°12'0 0.0
2017-Nov-09 08:30N 16°10' E 108°12'0 0.1
2017-Nov-09 08:00N 16°10' E 108°12'0 0.0
2017-Nov-09 07:30N 16°10' E 108°12'0 0.0
2017-Nov-09 07:00N 16°10' E 108°12'0 0.1
2017-Nov-09 06:30N 16°10' E 108°12'0 0.0
2017-Nov-09 06:00N 16°10' E 108°12'0 0.0
2017-Nov-09 05:30N 16°10' E 108°12'4 7.3
2017-Nov-09 04:54N 16°13' E 108°16'715.3
2017-Nov-09 04:27N 16°16' E 108°22'716.0
2017-Nov-09 04:00N 16°20' E 108°28'74018.8
2017-Nov-07 12:41N 22°23' E 119°52'319.3
2017-Nov-07 12:30N 22°24' E 119°55'918.7
2017-Nov-07 12:00N 22°29' E 120°04'918.1
2017-Nov-07 11:30N 22°32' E 120°13'611.2
2017-Nov-07 11:01N 22°33' E 120°19'2 3.4
2017-Nov-07 10:31N 22°35' E 120°18'0 0.0
2017-Nov-07 10:00N 22°35' E 120°18'0 0.0
2017-Nov-07 09:30N 22°35' E 120°18'0 0.0
2017-Nov-07 09:00N 22°35' E 120°18'0 0.0
2017-Nov-07 08:30N 22°35' E 120°18'0 0.0
2017-Nov-07 08:00N 22°35' E 120°18'0 0.0
2017-Nov-07 07:30N 22°35' E 120°18'0 0.0
2017-Nov-07 07:00N 22°35' E 120°18'0 0.0
2017-Nov-07 06:30N 22°35' E 120°18'0 0.0
2017-Nov-07 06:00N 22°35' E 120°18'0 0.0
2017-Nov-07 05:27N 22°35' E 120°18'0 0.0
2017-Nov-07 05:00N 22°35' E 120°18'0 0.0
2017-Nov-07 04:30N 22°35' E 120°18'0 0.0
2017-Nov-07 03:54N 22°35' E 120°18'0 0.0
2017-Nov-07 03:30N 22°35' E 120°18'0 0.0
2017-Nov-07 03:00N 22°35' E 120°18'0 0.0
2017-Nov-07 02:24N 22°35' E 120°18'0 0.0
2017-Nov-07 01:54N 22°35' E 120°18'0 0.0
2017-Nov-07 01:30N 22°35' E 120°18'0 0.0
2017-Nov-07 01:00N 22°35' E 120°18'0 0.0
2017-Nov-07 00:30N 22°35' E 120°18'0 0.0
2017-Nov-07 00:00N 22°35' E 120°18'0 0.0
2017-Nov-06 23:30N 22°35' E 120°18'0 0.0
2017-Nov-06 23:00N 22°35' E 120°18'0 0.0
2017-Nov-06 22:30N 22°35' E 120°18'0 0.0
2017-Nov-06 21:57N 22°35' E 120°18'0 0.0
2017-Nov-06 21:30N 22°35' E 120°18'0 0.1
2017-Nov-06 21:00N 22°35' E 120°18'3 6.6
2017-Nov-06 20:30N 22°37' E 120°16'  

Dump ship's entire track history